createdAt,value
2018-04-26T00:00:56.155Z,967.9
2018-04-26T00:02:05.912Z,967.91
2018-04-26T00:03:15.395Z,967.93
2018-04-26T00:04:25.142Z,967.9
2018-04-26T00:05:35.155Z,967.93
2018-04-26T00:06:45.286Z,967.91
2018-04-26T00:07:55.297Z,967.91
2018-04-26T00:09:05.033Z,967.9
2018-04-26T00:10:15.037Z,967.91
2018-04-26T00:11:25.047Z,967.95
2018-04-26T00:12:34.518Z,967.96
2018-04-26T00:13:44.540Z,967.91
2018-04-26T00:14:54.545Z,967.92
2018-04-26T00:16:04.023Z,967.96
2018-04-26T00:17:13.768Z,967.95
2018-04-26T00:18:23.773Z,967.92
2018-04-26T00:19:33.778Z,967.93
2018-04-26T00:20:43.785Z,967.94
2018-04-26T00:21:53.803Z,967.94
2018-04-26T00:23:03.541Z,967.96
2018-04-26T00:24:13.559Z,967.95
2018-04-26T00:25:23.298Z,967.96
2018-04-26T00:26:32.766Z,967.99
2018-04-26T00:27:42.773Z,967.94
2018-04-26T00:28:52.509Z,967.96
2018-04-26T00:30:02.345Z,967.95
2018-04-26T00:31:11.826Z,967.93
2018-04-26T00:32:21.831Z,967.94
2018-04-26T00:33:31.841Z,967.94
2018-04-26T00:34:41.586Z,967.92
2018-04-26T00:35:51.328Z,967.99
2018-04-26T00:37:01.067Z,967.97
2018-04-26T00:38:10.539Z,967.95
2018-04-26T00:39:20.545Z,967.95
2018-04-26T00:40:29.494Z,967.95
2018-04-26T00:41:39.510Z,967.95
2018-04-26T00:42:49.521Z,967.91
2018-04-26T00:43:59.531Z,967.93
2018-04-26T00:45:09.002Z,967.95
2018-04-26T00:46:18.749Z,967.92
2018-04-26T00:47:28.494Z,967.84
2018-04-26T00:48:38.504Z,967.87
2018-04-26T00:49:47.987Z,967.85
2018-04-26T00:50:57.469Z,967.88
2018-04-26T00:52:07.477Z,967.87
2018-04-26T00:53:17.488Z,967.88
2018-04-26T00:54:26.961Z,967.87
2018-04-26T00:55:36.968Z,967.85
2018-04-26T00:56:46.703Z,967.89
2018-04-26T00:57:56.709Z,967.88
2018-04-26T00:59:06.546Z,967.9
2018-04-26T01:00:16.284Z,967.87
2018-04-26T01:01:26.024Z,967.91
2018-04-26T01:02:36.038Z,967.91
2018-04-26T01:03:46.045Z,967.9
2018-04-26T01:04:56.056Z,967.93
2018-04-26T01:06:05.532Z,967.89
2018-04-26T01:07:15.538Z,967.9
2018-04-26T01:08:25.540Z,967.93
2018-04-26T01:09:35.277Z,967.9
2018-04-26T01:10:44.751Z,967.88
2018-04-26T01:11:54.754Z,967.9
2018-04-26T01:13:04.786Z,967.93
2018-04-26T01:14:14.834Z,967.87
2018-04-26T01:15:24.844Z,967.9
2018-04-26T01:16:34.582Z,967.88
2018-04-26T01:17:44.579Z,967.9
2018-04-26T01:18:54.314Z,967.92
2018-04-26T01:20:04.102Z,967.89
2018-04-26T01:21:14.403Z,967.87
2018-04-26T01:22:24.408Z,967.86
2018-04-26T01:23:34.145Z,967.89
2018-04-26T01:24:44.149Z,967.9
2018-04-26T01:25:54.156Z,967.93
2018-04-26T01:27:03.903Z,967.92
2018-04-26T01:28:13.954Z,967.92
2018-04-26T01:29:23.454Z,967.9
2018-04-26T01:30:33.469Z,967.93
2018-04-26T01:31:43.471Z,967.98
2018-04-26T01:32:53.213Z,967.98
2018-04-26T01:34:02.951Z,967.95
2018-04-26T01:35:12.690Z,968
2018-04-26T01:36:22.433Z,967.99
2018-04-26T01:37:32.168Z,968.01
2018-04-26T01:38:42.173Z,968.04
2018-04-26T01:39:51.642Z,967.99
2018-04-26T01:41:01.674Z,968.03
2018-04-26T01:42:11.146Z,968.04
2018-04-26T01:43:20.348Z,968.03
2018-04-26T01:44:30.367Z,968.01
2018-04-26T01:45:40.114Z,968
2018-04-26T01:46:49.856Z,967.99
2018-04-26T01:47:59.953Z,968.01
2018-04-26T01:49:09.964Z,968
2018-04-26T01:50:19.719Z,967.99
2018-04-26T01:51:29.465Z,968.01
2018-04-26T01:52:39.488Z,967.98
2018-04-26T01:53:49.492Z,967.98
2018-04-26T01:54:59.497Z,968.01
2018-04-26T01:56:09.239Z,967.99
2018-04-26T01:57:18.974Z,967.95
2018-04-26T01:58:28.978Z,967.96
2018-04-26T01:59:38.715Z,967.98
2018-04-26T02:00:48.725Z,967.98
2018-04-26T02:01:58.477Z,968
2018-04-26T02:03:08.485Z,968
2018-04-26T02:04:18.223Z,968.02
2018-04-26T02:05:27.961Z,968.06
2018-04-26T02:06:37.163Z,968.03
2018-04-26T02:07:47.175Z,968.03
2018-04-26T02:08:57.185Z,968.06
2018-04-26T02:10:07.191Z,968.05
2018-04-26T02:11:16.953Z,968.05
2018-04-26T02:12:26.960Z,968.07
2018-04-26T02:13:36.161Z,968.08
2018-04-26T02:14:45.952Z,968.04
2018-04-26T02:15:55.956Z,968.05
2018-04-26T02:17:05.692Z,968.05
2018-04-26T02:18:15.447Z,968.02
2018-04-26T02:19:25.456Z,968.01
2018-04-26T02:20:35.462Z,968.04
2018-04-26T02:21:45.470Z,968.02
2018-04-26T02:22:55.475Z,968.08
2018-04-26T02:24:05.208Z,968.06
2018-04-26T02:25:15.210Z,968.08
2018-04-26T02:26:25.222Z,968.09
2018-04-26T02:27:34.958Z,968.02
2018-04-26T02:28:44.969Z,968.07
2018-04-26T02:29:54.971Z,968.07
2018-04-26T02:31:04.708Z,968.01
2018-04-26T02:32:14.457Z,968.03
2018-04-26T02:33:24.461Z,968.06
2018-04-26T02:34:34.585Z,968.09
2018-04-26T02:35:44.061Z,968.07
2018-04-26T02:36:54.077Z,968.07
2018-04-26T02:38:03.814Z,968.07
2018-04-26T02:39:13.557Z,968.1
2018-04-26T02:40:23.579Z,968.11
2018-04-26T02:41:33.590Z,968.13
2018-04-26T02:42:42.800Z,968.16
2018-04-26T02:43:52.546Z,968.18
2018-04-26T02:45:02.281Z,968.13
2018-04-26T02:46:12.029Z,968.17
2018-04-26T02:47:22.052Z,968.19
2018-04-26T02:48:31.808Z,968.19
2018-04-26T02:49:41.807Z,968.14
2018-04-26T02:50:51.547Z,968.19
2018-04-26T02:52:01.016Z,968.14
2018-04-26T02:53:11.034Z,968.17
2018-04-26T02:54:21.057Z,968.16
2018-04-26T02:55:31.072Z,968.14
2018-04-26T02:56:41.176Z,968.13
2018-04-26T02:57:50.927Z,968.14
2018-04-26T02:59:00.683Z,968.2
2018-04-26T03:04:27.549Z,968.19
2018-04-26T03:05:37.306Z,968.2
2018-04-26T03:06:46.778Z,968.24
2018-04-26T03:07:56.799Z,968.22
2018-04-26T03:09:06.542Z,968.21
2018-04-26T03:10:15.763Z,968.2
2018-04-26T03:11:25.518Z,968.24
2018-04-26T03:12:35.525Z,968.26
2018-04-26T03:13:45.565Z,968.25
2018-04-26T03:14:55.668Z,968.29
2018-04-26T03:16:05.147Z,968.3
2018-04-26T03:17:15.153Z,968.27
2018-04-26T03:18:24.886Z,968.27
2018-04-26T03:19:34.896Z,968.24
2018-04-26T03:20:44.464Z,968.31
2018-04-26T03:21:54.213Z,968.3
2018-04-26T03:23:04.218Z,968.3
2018-04-26T03:24:14.227Z,968.3
2018-04-26T03:25:23.965Z,968.28
2018-04-26T03:26:33.965Z,968.32
2018-04-26T03:27:43.708Z,968.27
2018-04-26T03:28:53.443Z,968.25
2018-04-26T03:30:02.921Z,968.29
2018-04-26T03:31:12.752Z,968.34
2018-04-26T03:32:22.934Z,968.31
2018-04-26T03:33:32.670Z,968.33
2018-04-26T03:34:42.680Z,968.31
2018-04-26T03:35:52.419Z,968.33
2018-04-26T03:37:01.884Z,968.34
2018-04-26T03:38:11.090Z,968.36
2018-04-26T03:39:20.824Z,968.39
2018-04-26T03:40:30.851Z,968.39
2018-04-26T03:41:40.860Z,968.35
2018-04-26T03:42:50.060Z,968.37
2018-04-26T03:44:00.116Z,968.35
2018-04-26T03:45:09.584Z,968.36
2018-04-26T03:46:19.596Z,968.38
2018-04-26T03:47:29.594Z,968.39
2018-04-26T03:48:39.598Z,968.39
2018-04-26T03:49:49.066Z,968.37
2018-04-26T03:50:58.815Z,968.38
2018-04-26T03:52:08.822Z,968.34
2018-04-26T03:53:18.830Z,968.36
2018-04-26T03:54:28.030Z,968.31
2018-04-26T03:55:38.038Z,968.36
2018-04-26T03:56:48.046Z,968.37
2018-04-26T03:57:57.867Z,968.37
2018-04-26T03:59:07.872Z,968.4
2018-04-26T04:00:17.610Z,968.42
2018-04-26T04:01:27.362Z,968.46
2018-04-26T04:02:37.672Z,968.44
2018-04-26T04:03:47.473Z,968.44
2018-04-26T04:04:57.218Z,968.44
2018-04-26T04:06:07.310Z,968.42
2018-04-26T04:07:17.317Z,968.45
2018-04-26T04:08:26.514Z,968.45
2018-04-26T04:09:35.983Z,968.45
2018-04-26T04:10:45.729Z,968.41
2018-04-26T04:11:55.199Z,968.42
2018-04-26T04:13:04.931Z,968.42
2018-04-26T04:14:13.863Z,968.42
2018-04-26T04:15:23.067Z,968.4
2018-04-26T04:16:33.074Z,968.43
2018-04-26T04:17:43.075Z,968.41
2018-04-26T04:18:53.089Z,968.43
2018-04-26T04:20:02.833Z,968.41
2018-04-26T04:21:12.311Z,968.46
2018-04-26T04:22:22.053Z,968.46
2018-04-26T04:23:31.806Z,968.47
2018-04-26T04:24:41.810Z,968.48
2018-04-26T04:25:51.546Z,968.49
2018-04-26T04:27:01.288Z,968.48
2018-04-26T04:28:10.755Z,968.51
2018-04-26T04:29:20.755Z,968.51
2018-04-26T04:30:30.493Z,968.49
2018-04-26T04:31:39.703Z,968.49
2018-04-26T04:32:49.713Z,968.56
2018-04-26T04:33:59.714Z,968.55
2018-04-26T04:35:09.457Z,968.56
2018-04-26T04:36:19.137Z,968.59
2018-04-26T04:37:28.607Z,968.63
2018-04-26T04:38:38.609Z,968.61
2018-04-26T04:39:48.614Z,968.63
2018-04-26T04:40:58.620Z,968.65
2018-04-26T04:42:07.821Z,968.6
2018-04-26T04:43:17.560Z,968.66
2018-04-26T04:44:27.293Z,968.66
2018-04-26T04:45:37.038Z,968.68
2018-04-26T04:46:47.187Z,968.67
2018-04-26T04:47:57.189Z,968.64
2018-04-26T04:49:06.928Z,968.64
2018-04-26T04:50:16.734Z,968.64
2018-04-26T04:51:26.207Z,968.69
2018-04-26T04:52:36.215Z,968.69
2018-04-26T04:53:45.950Z,968.67
2018-04-26T04:54:55.964Z,968.67
2018-04-26T04:56:05.437Z,968.68
2018-04-26T04:57:15.175Z,968.69
2018-04-26T04:58:25.256Z,968.65
2018-04-26T04:59:35.266Z,968.72
2018-04-26T05:00:45.006Z,968.67
2018-04-26T05:01:54.836Z,968.67
2018-04-26T05:03:04.786Z,968.64
2018-04-26T05:04:14.856Z,968.65
2018-04-26T05:05:24.593Z,968.68
2018-04-26T05:06:34.327Z,968.68
2018-04-26T05:07:43.528Z,968.66
2018-04-26T05:08:53.277Z,968.69
2018-04-26T05:10:03.380Z,968.71
2018-04-26T05:11:13.120Z,968.72
2018-04-26T05:12:23.126Z,968.75
2018-04-26T05:13:33.135Z,968.75
2018-04-26T05:14:42.613Z,968.75
2018-04-26T05:15:52.364Z,968.76
2018-04-26T05:17:02.106Z,968.73
2018-04-26T05:18:11.861Z,968.78
2018-04-26T05:19:21.626Z,968.81
2018-04-26T05:20:31.631Z,968.78
2018-04-26T05:21:41.370Z,968.81
2018-04-26T05:22:51.377Z,968.82
2018-04-26T05:24:01.389Z,968.82
2018-04-26T05:25:11.181Z,968.84
2018-04-26T05:26:20.954Z,968.81
2018-04-26T05:27:30.991Z,968.87
2018-04-26T05:28:40.732Z,968.86
2018-04-26T05:29:50.741Z,968.84
2018-04-26T05:31:00.868Z,968.85
2018-04-26T05:32:10.338Z,968.89
2018-04-26T05:33:20.101Z,968.89
2018-04-26T05:34:29.892Z,968.92
2018-04-26T05:35:39.359Z,968.9
2018-04-26T05:36:49.110Z,968.92
2018-04-26T05:37:58.852Z,968.92
2018-04-26T05:39:08.853Z,968.97
2018-04-26T05:40:18.593Z,968.97
2018-04-26T05:41:28.411Z,969
2018-04-26T05:42:38.145Z,968.97
2018-04-26T05:43:48.153Z,968.96
2018-04-26T05:44:58.156Z,968.96
2018-04-26T05:46:07.635Z,969.01
2018-04-26T05:47:17.693Z,969.04
2018-04-26T05:48:28.099Z,969.04
2018-04-26T05:49:38.107Z,969
2018-04-26T05:50:48.123Z,969.03
2018-04-26T05:51:57.422Z,968.97
2018-04-26T05:53:06.898Z,968.99
2018-04-26T05:54:16.911Z,968.98
2018-04-26T05:55:26.384Z,968.9
2018-04-26T05:56:36.386Z,968.91
2018-04-26T05:57:46.440Z,968.92
2018-04-26T05:58:56.529Z,968.95
2018-04-26T06:00:06.273Z,968.98
2018-04-26T06:01:16.017Z,968.96
2018-04-26T06:02:26.023Z,968.93
2018-04-26T06:03:35.555Z,968.95
2018-04-26T06:04:45.773Z,968.94
2018-04-26T06:05:55.785Z,968.98
2018-04-26T06:07:05.523Z,968.98
2018-04-26T06:08:15.535Z,968.96
2018-04-26T06:09:25.545Z,968.92
2018-04-26T06:10:35.286Z,968.95
2018-04-26T06:11:45.027Z,968.98
2018-04-26T06:12:54.769Z,968.99
2018-04-26T06:14:04.521Z,968.95
2018-04-26T06:15:14.259Z,968.97
2018-04-26T06:16:24.009Z,969.02
2018-04-26T06:17:34.022Z,969.02
2018-04-26T06:18:44.026Z,968.99
2018-04-26T06:19:53.828Z,969
2018-04-26T06:21:03.299Z,969.06
2018-04-26T06:22:13.035Z,969.01
2018-04-26T06:23:23.047Z,969.04
2018-04-26T06:24:33.056Z,969.06
2018-04-26T06:25:43.061Z,969
2018-04-26T06:26:52.535Z,969.02
2018-04-26T06:28:02.273Z,969
2018-04-26T06:29:11.747Z,969.02
2018-04-26T06:30:21.497Z,968.99
2018-04-26T06:31:31.244Z,969
2018-04-26T06:32:41.349Z,969.03
2018-04-26T06:33:51.090Z,969.01
2018-04-26T06:35:00.824Z,969.02
2018-04-26T06:36:10.585Z,969.05
2018-04-26T06:37:20.637Z,969.05
2018-04-26T06:38:30.641Z,969
2018-04-26T06:39:40.381Z,969.03
2018-04-26T06:40:50.393Z,969.06
2018-04-26T06:41:59.866Z,969.06
2018-04-26T06:43:09.882Z,969.06
2018-04-26T06:44:19.888Z,969.07
2018-04-26T06:45:29.894Z,969.11
2018-04-26T06:46:39.644Z,969.1
2018-04-26T06:47:49.484Z,969.13
2018-04-26T06:48:59.900Z,969.13
2018-04-26T06:50:09.653Z,969.13
2018-04-26T06:51:19.672Z,969.16
2018-04-26T06:52:29.678Z,969.12
2018-04-26T06:53:39.685Z,969.11
2018-04-26T06:54:49.425Z,969.11
2018-04-26T06:55:59.433Z,969.12
2018-04-26T06:57:08.905Z,969.12
2018-04-26T06:58:18.113Z,969.09
2018-04-26T06:59:28.118Z,969.12
2018-04-26T07:00:38.133Z,969.15
2018-04-26T07:01:47.612Z,969.1
2018-04-26T07:02:57.359Z,969.12
2018-04-26T07:04:06.836Z,969.13
2018-04-26T07:05:16.845Z,969.13
2018-04-26T07:06:26.587Z,969.09
2018-04-26T07:07:36.596Z,969.14
2018-04-26T07:08:46.616Z,969.11
2018-04-26T07:09:56.088Z,969.14
2018-04-26T07:11:05.836Z,969.15
2018-04-26T07:12:15.574Z,969.14
2018-04-26T07:13:25.585Z,969.11
2018-04-26T07:14:35.601Z,969.14
2018-04-26T07:15:45.607Z,969.15
2018-04-26T07:16:54.812Z,969.19
2018-04-26T07:18:04.567Z,969.15
2018-04-26T07:19:14.582Z,969.13
2018-04-26T07:20:23.788Z,969.16
2018-04-26T07:21:33.527Z,969.15
2018-04-26T07:22:43.049Z,969.15
2018-04-26T07:23:52.523Z,969.22
2018-04-26T07:25:02.362Z,969.19
2018-04-26T07:26:12.105Z,969.19
2018-04-26T07:27:21.580Z,969.18
2018-04-26T07:28:31.588Z,969.16
2018-04-26T07:29:41.603Z,969.16
2018-04-26T07:30:51.617Z,969.16
2018-04-26T07:32:01.622Z,969.15
2018-04-26T07:33:11.635Z,969.19
2018-04-26T07:34:21.377Z,969.12
2018-04-26T07:35:31.117Z,969.11
2018-04-26T07:36:41.133Z,969.11
2018-04-26T07:37:50.880Z,969.09
2018-04-26T07:39:00.908Z,969.14
2018-04-26T07:40:10.650Z,969.19
2018-04-26T07:41:20.661Z,969.15
2018-04-26T07:42:30.409Z,969.19
2018-04-26T07:43:40.432Z,969.17
2018-04-26T07:44:50.466Z,969.19
2018-04-26T07:46:00.385Z,969.17
2018-04-26T07:47:10.123Z,969.23
2018-04-26T07:48:19.646Z,969.18
2018-04-26T07:49:29.659Z,969.17
2018-04-26T07:50:39.406Z,969.13
2018-04-26T07:51:49.420Z,969.16
2018-04-26T07:52:59.160Z,969.14
2018-04-26T07:54:09.139Z,969.13
2018-04-26T07:55:18.876Z,969.16
2018-04-26T07:56:28.879Z,969.14
2018-04-26T07:57:38.685Z,969.16
2018-04-26T07:58:48.435Z,969.23
2018-04-26T07:59:58.549Z,969.2
2018-04-26T08:01:08.726Z,969.24
2018-04-26T08:02:18.740Z,969.19
2018-04-26T08:03:28.557Z,969.16
2018-04-26T08:04:38.635Z,969.21
2018-04-26T08:05:48.664Z,969.21
2018-04-26T08:06:58.676Z,969.19
2018-04-26T08:08:07.889Z,969.17
2018-04-26T08:09:17.918Z,969.18
2018-04-26T08:10:27.661Z,969.23
2018-04-26T08:11:37.492Z,969.2
2018-04-26T08:12:47.423Z,969.15
2018-04-26T08:13:57.435Z,969.19
2018-04-26T08:15:07.465Z,969.24
2018-04-26T08:16:17.477Z,969.21
2018-04-26T08:17:27.217Z,969.23
2018-04-26T08:18:36.978Z,969.26
2018-04-26T08:19:46.737Z,969.26
2018-04-26T08:20:56.826Z,969.29
2018-04-26T08:22:06.831Z,969.26
2018-04-26T08:23:16.576Z,969.28
2018-04-26T08:24:26.329Z,969.31
2018-04-26T08:25:36.109Z,969.35
2018-04-26T08:26:46.231Z,969.32
2018-04-26T08:27:55.980Z,969.33
2018-04-26T08:29:05.186Z,969.3
2018-04-26T08:30:14.938Z,969.34
2018-04-26T08:31:24.981Z,969.32
2018-04-26T08:32:34.988Z,969.34
2018-04-26T08:33:44.740Z,969.34
2018-04-26T08:34:54.580Z,969.32
2018-04-26T08:36:04.637Z,969.36
2018-04-26T08:37:13.845Z,969.4
2018-04-26T08:38:23.656Z,969.39
2018-04-26T08:39:33.394Z,969.41
2018-04-26T08:40:42.651Z,969.39
2018-04-26T08:41:52.661Z,969.4
2018-04-26T08:43:02.430Z,969.37
2018-04-26T08:44:12.434Z,969.42
2018-04-26T08:45:22.181Z,969.39
2018-04-26T08:46:32.392Z,969.38
2018-04-26T08:47:42.406Z,969.4
2018-04-26T08:48:51.617Z,969.4
2018-04-26T08:50:01.367Z,969.47
2018-04-26T08:51:10.576Z,969.37
2018-04-26T08:52:20.374Z,969.42
2018-04-26T08:53:30.713Z,969.39
2018-04-26T08:54:40.735Z,969.43
2018-04-26T08:55:50.490Z,969.42
2018-04-26T08:57:00.520Z,969.48
2018-04-26T08:58:09.994Z,969.44
2018-04-26T08:59:20.089Z,969.44
2018-04-26T09:00:29.296Z,969.5
2018-04-26T09:01:39.310Z,969.43
2018-04-26T09:02:49.316Z,969.47
2018-04-26T09:03:58.795Z,969.49
2018-04-26T09:05:08.804Z,969.46
2018-04-26T09:06:18.548Z,969.44
2018-04-26T09:07:28.288Z,969.44
2018-04-26T09:08:38.058Z,969.41
2018-04-26T09:09:48.073Z,969.41
2018-04-26T09:10:58.081Z,969.45
2018-04-26T09:12:08.110Z,969.42
2018-04-26T09:13:17.891Z,969.4
2018-04-26T09:14:27.987Z,969.35
2018-04-26T09:15:37.870Z,969.39
2018-04-26T09:16:48.017Z,969.38
2018-04-26T09:17:58.030Z,969.4
2018-04-26T09:19:07.519Z,969.43
2018-04-26T09:20:17.262Z,969.42
2018-04-26T09:21:27.012Z,969.43
2018-04-26T09:22:36.778Z,969.44
2018-04-26T09:23:46.816Z,969.49
2018-04-26T09:24:56.833Z,969.49
2018-04-26T09:26:06.579Z,969.48
2018-04-26T09:27:16.052Z,969.45
2018-04-26T09:28:26.057Z,969.45
2018-04-26T09:29:35.801Z,969.44
2018-04-26T09:30:45.272Z,969.41
2018-04-26T09:31:55.028Z,969.43
2018-04-26T09:33:04.776Z,969.41
2018-04-26T09:34:14.536Z,969.42
2018-04-26T09:35:24.548Z,969.4
2018-04-26T09:36:34.559Z,969.44
2018-04-26T09:37:44.041Z,969.41
2018-04-26T09:38:53.885Z,969.44
2018-04-26T09:40:03.697Z,969.41
2018-04-26T09:41:13.182Z,969.44
2018-04-26T09:42:23.200Z,969.45
2018-04-26T09:43:32.944Z,969.4
2018-04-26T09:44:42.426Z,969.43
2018-04-26T09:45:52.435Z,969.37
2018-04-26T09:47:01.917Z,969.43
2018-04-26T09:48:11.661Z,969.44
2018-04-26T09:49:21.712Z,969.38
2018-04-26T09:50:31.464Z,969.41
2018-04-26T09:51:41.489Z,969.4
2018-04-26T09:52:51.231Z,969.39
2018-04-26T09:54:00.971Z,969.4
2018-04-26T09:55:10.981Z,969.39
2018-04-26T09:56:20.732Z,969.41
2018-04-26T09:57:30.487Z,969.36
2018-04-26T09:58:40.501Z,969.42
2018-04-26T09:59:50.520Z,969.41
2018-04-26T10:01:00.270Z,969.39
2018-04-26T10:02:10.286Z,969.37
2018-04-26T10:03:20.037Z,969.38
2018-04-26T10:04:29.522Z,969.34
2018-04-26T10:05:39.272Z,969.31
2018-04-26T10:06:49.013Z,969.37
2018-04-26T10:07:58.758Z,969.32
2018-04-26T10:09:08.230Z,969.35
2018-04-26T10:10:18.243Z,969.31
2018-04-26T10:11:28.321Z,969.29
2018-04-26T10:12:38.064Z,969.29
2018-04-26T10:13:47.933Z,969.28
2018-04-26T10:14:57.686Z,969.3
2018-04-26T10:16:07.251Z,969.27
2018-04-26T10:17:17.260Z,969.26
2018-04-26T10:18:27.288Z,969.24
2018-04-26T10:19:36.815Z,969.26
2018-04-26T10:20:46.562Z,969.26
2018-04-26T10:21:56.581Z,969.25
2018-04-26T10:23:06.073Z,969.24
2018-04-26T10:24:15.812Z,969.24
2018-04-26T10:25:25.879Z,969.22
2018-04-26T10:26:35.896Z,969.19
2018-04-26T10:27:45.377Z,969.25
2018-04-26T10:28:55.389Z,969.28
2018-04-26T10:30:05.157Z,969.21
2018-04-26T10:31:14.609Z,969.24
2018-04-26T10:32:24.358Z,969.26
2018-04-26T10:33:33.846Z,969.26
2018-04-26T10:34:43.592Z,969.3
2018-04-26T10:35:53.068Z,969.3
2018-04-26T10:37:02.808Z,969.26
2018-04-26T10:38:12.555Z,969.31
2018-04-26T10:39:22.033Z,969.34
2018-04-26T10:40:31.773Z,969.31
2018-04-26T10:41:41.514Z,969.31
2018-04-26T10:42:51.521Z,969.34
2018-04-26T10:44:01.540Z,969.31
2018-04-26T10:45:11.593Z,969.3
2018-04-26T10:46:21.609Z,969.27
2018-04-26T10:47:31.631Z,969.27
2018-04-26T10:48:41.110Z,969.29
2018-04-26T10:49:50.853Z,969.3
2018-04-26T10:51:00.861Z,969.31
2018-04-26T10:52:10.601Z,969.28
2018-04-26T10:53:20.346Z,969.3
2018-04-26T10:54:30.353Z,969.29
2018-04-26T10:55:39.837Z,969.27
2018-04-26T10:56:49.598Z,969.29
2018-04-26T10:57:59.675Z,969.3
2018-04-26T10:59:09.695Z,969.3
2018-04-26T11:00:19.706Z,969.31
2018-04-26T11:01:28.913Z,969.33
2018-04-26T11:02:38.670Z,969.32
2018-04-26T11:03:48.425Z,969.27
2018-04-26T11:04:58.440Z,969.26
2018-04-26T11:06:08.198Z,969.27
2018-04-26T11:07:18.210Z,969.28
2018-04-26T11:08:27.951Z,969.26
2018-04-26T11:09:37.703Z,969.3
2018-04-26T11:10:47.183Z,969.26
2018-04-26T11:11:57.206Z,969.28
2018-04-26T11:13:06.947Z,969.27
2018-04-26T11:14:16.421Z,969.28
2018-04-26T11:15:26.176Z,969.27
2018-04-26T11:16:36.366Z,969.24
2018-04-26T11:17:46.113Z,969.26
2018-04-26T11:18:56.122Z,969.22
2018-04-26T11:20:05.605Z,969.3
2018-04-26T11:21:15.624Z,969.29
2018-04-26T11:22:25.786Z,969.34
2018-04-26T11:23:35.869Z,969.44
2018-04-26T11:24:45.882Z,969.47
2018-04-26T11:25:55.915Z,969.43
2018-04-26T11:27:05.964Z,969.45
2018-04-26T11:28:15.956Z,969.37
2018-04-26T11:29:25.916Z,969.38
2018-04-26T11:30:35.684Z,969.36
2018-04-26T11:31:45.697Z,969.27
2018-04-26T11:32:55.464Z,969.3
2018-04-26T11:34:04.683Z,969.28
2018-04-26T11:35:14.438Z,969.26
2018-04-26T11:36:24.201Z,969.26
2018-04-26T11:37:34.235Z,969.26
2018-04-26T11:38:44.003Z,969.23
2018-04-26T11:39:53.504Z,969.28
2018-04-26T11:41:03.260Z,969.33
2018-04-26T11:42:12.746Z,969.26
2018-04-26T11:43:22.501Z,969.34
2018-04-26T11:44:32.519Z,969.29
2018-04-26T11:45:42.277Z,969.26
2018-04-26T11:46:52.029Z,969.3
2018-04-26T11:48:02.051Z,969.27
2018-04-26T11:49:11.817Z,969.26
2018-04-26T11:50:21.574Z,969.22
2018-04-26T11:51:31.109Z,969.27
2018-04-26T11:52:41.190Z,969.34
2018-04-26T11:53:51.216Z,969.32
2018-04-26T11:55:00.443Z,969.23
2018-04-26T11:56:10.481Z,969.24
2018-04-26T11:57:20.691Z,969.32
2018-04-26T11:58:30.728Z,969.37
2018-04-26T11:59:40.495Z,969.37
2018-04-26T12:00:50.516Z,969.29
2018-04-26T12:02:00.292Z,969.29
2018-04-26T12:03:09.802Z,969.33
2018-04-26T12:04:19.618Z,969.23
2018-04-26T12:05:29.650Z,969.35
2018-04-26T12:06:39.483Z,969.34
2018-04-26T12:07:49.290Z,969.33
2018-04-26T12:08:58.865Z,969.31
2018-04-26T12:10:08.703Z,969.33
2018-04-26T12:11:18.469Z,969.37
2018-04-26T12:12:28.231Z,969.37
2018-04-26T12:13:38.255Z,969.31
2018-04-26T12:14:48.285Z,969.27
2018-04-26T12:15:58.309Z,969.35
2018-04-26T12:17:08.065Z,969.39
2018-04-26T12:18:17.823Z,969.33
2018-04-26T12:19:27.058Z,969.42
2018-04-26T12:20:36.283Z,969.35
2018-04-26T12:21:45.772Z,969.44
2018-04-26T12:22:55.808Z,969.28
2018-04-26T12:24:05.858Z,969.46
2018-04-26T12:25:15.717Z,969.33
2018-04-26T12:26:25.747Z,969.49
2018-04-26T12:27:35.520Z,969.5
2018-04-26T12:28:45.288Z,969.47
2018-04-26T12:29:55.336Z,969.56
2018-04-26T12:31:05.106Z,969.53
2018-04-26T12:32:15.130Z,969.49
2018-04-26T12:33:25.269Z,969.41
2018-04-26T12:34:35.304Z,969.48
2018-04-26T12:35:45.064Z,969.52
2018-04-26T12:36:54.825Z,969.53
2018-04-26T12:38:04.326Z,969.53
2018-04-26T12:39:14.353Z,969.53
2018-04-26T12:40:24.381Z,969.46
2018-04-26T12:41:34.146Z,969.5
2018-04-26T12:42:43.918Z,969.51
2018-04-26T12:43:53.678Z,969.53
2018-04-26T12:45:03.176Z,969.55
2018-04-26T12:46:12.950Z,969.53
2018-04-26T12:47:22.978Z,969.47
2018-04-26T12:48:33.008Z,969.48
2018-04-26T12:49:43.035Z,969.58
2018-04-26T12:50:53.070Z,969.55
2018-04-26T12:52:02.837Z,969.06
2018-04-26T12:53:12.875Z,969.02
2018-04-26T12:54:22.907Z,969.04
2018-04-26T12:55:32.937Z,969.12
2018-04-26T12:56:42.981Z,969.19
2018-04-26T12:57:53.019Z,969.78
2018-04-26T12:59:02.515Z,969.76
2018-04-26T13:00:12.291Z,969.8
2018-04-26T13:01:22.053Z,969.75
2018-04-26T13:02:31.549Z,969.7
2018-04-26T13:03:41.576Z,969.68
2018-04-26T13:04:51.404Z,969.71
2018-04-26T13:06:01.024Z,969.14
2018-04-26T13:07:10.797Z,969.53
2018-04-26T13:08:20.675Z,969.72
2018-04-26T13:09:30.168Z,969.67
2018-04-26T13:10:39.930Z,969.24
2018-04-26T13:11:49.455Z,969.63
2018-04-26T13:12:59.565Z,969.09
2018-04-26T13:14:09.062Z,969.18
2018-04-26T13:15:18.555Z,969.02
2018-04-26T13:16:28.582Z,969.04
2018-04-26T13:17:38.351Z,969.04
2018-04-26T13:18:48.383Z,969.09
2018-04-26T13:19:57.883Z,969.13
2018-04-26T13:21:07.200Z,969.27
2018-04-26T13:22:17.343Z,969.29
2018-04-26T13:23:27.381Z,969.21
2018-04-26T13:24:37.152Z,969.3
2018-04-26T13:25:47.223Z,969.36
2018-04-26T13:26:57.254Z,969.36
2018-04-26T13:28:07.175Z,969.44
2018-04-26T13:29:17.202Z,969.35
2018-04-26T13:30:26.963Z,969.35
2018-04-26T13:31:36.995Z,969.32
2018-04-26T13:32:46.754Z,969.27
2018-04-26T13:33:56.777Z,969.26
2018-04-26T13:35:06.798Z,969.31
2018-04-26T13:36:16.637Z,969.33
2018-04-26T13:37:26.641Z,969.39
2018-04-26T13:38:36.663Z,969.93
2018-04-26T13:39:45.993Z,969.97
2018-04-26T13:40:56.318Z,970
2018-04-26T13:42:06.083Z,969.98
2018-04-26T13:43:15.843Z,970.05
2018-04-26T13:44:25.338Z,970.08
2018-04-26T13:45:34.828Z,970.1
2018-04-26T13:46:44.581Z,969.55
2018-04-26T13:47:54.336Z,970.01
2018-04-26T13:49:03.826Z,970.06
2018-04-26T13:50:13.860Z,969.18
2018-04-26T13:51:23.620Z,969.36
2018-04-26T13:52:33.648Z,969.2
2018-04-26T13:53:43.404Z,969.21
2018-04-26T13:54:53.424Z,969.18
2018-04-26T13:56:03.184Z,969.23
2018-04-26T13:57:12.965Z,969.24
2018-04-26T13:58:22.727Z,969.32
2018-04-26T13:59:32.751Z,969.23
2018-04-26T14:00:43.102Z,969.28
2018-04-26T14:01:53.044Z,969.77
2018-04-26T14:03:02.797Z,969.84
2018-04-26T14:04:12.021Z,969.55
2018-04-26T14:05:22.049Z,969.61
2018-04-26T14:06:32.250Z,969.7
2018-04-26T14:07:42.282Z,969.84
2018-04-26T14:08:52.303Z,970.07
2018-04-26T14:10:01.870Z,970.09
2018-04-26T14:11:11.702Z,970.13
2018-04-26T14:12:21.726Z,970.25
2018-04-26T14:13:31.486Z,970.15
2018-04-26T14:14:40.978Z,970.05
2018-04-26T14:15:50.768Z,969.71
2018-04-26T14:17:00.257Z,969.46
2018-04-26T14:18:10.037Z,969.33
2018-04-26T14:19:19.543Z,969.32
2018-04-26T14:20:29.312Z,969.65
2018-04-26T14:21:38.798Z,970.2
2018-04-26T14:22:48.821Z,970.48
2018-04-26T14:23:58.988Z,970.59
2018-04-26T14:25:08.482Z,970.64
2018-04-26T14:26:18.518Z,970.7
2018-04-26T14:27:28.560Z,970.61
2018-04-26T14:28:38.328Z,970.62
2018-04-26T14:29:48.360Z,970.42
2018-04-26T14:30:58.123Z,970.21
2018-04-26T14:32:08.157Z,970.21
2018-04-26T14:33:17.915Z,969.48
2018-04-26T14:34:27.944Z,969.91
2018-04-26T14:35:37.705Z,969.04
2018-04-26T14:36:47.475Z,970.7
2018-04-26T14:37:57.509Z,969.22
2018-04-26T14:39:06.732Z,969.05